首页
METAR-TAF:

METAR-TAF

机场 :

纳塔尔, 北里约格朗德, 巴西

纬度: 05-46-05S, 经度: 035-22-34W, 海拔: 88米

当前天气观测

该预报发布于1小时和2分钟前的01:00 UTC
风速5节,风向南转南东
温度 25°C
湿度 89%
气压 1013 hPa
能见度10公里或以上
少量云层高于1900英尺

METAR: SBSG 220100Z 15005KT 9999 FEW019 25/23 Q1013

时间: 23:02 (02:02 UTC)

预报

该预报发布于4小时和2分钟前的22:00 UTC
预报有效从22日的 00点(UTC)到 22日的 24点(UTC)
风速8节,风向
能见度10公里或以上
散云层高于1800英尺
成为
从 22日的 10点(UTC)到 22日的 12点(UTC)
风速15节,风向东南
多云层高于2500英尺
成为
从 22日的 14点(UTC)到 22日的 16点(UTC)
散云层高于3000英尺
成为
从 22日的 21点(UTC)到 22日的 23点(UTC)
风速5节,风向

TAF: SBSG 212200Z 2200/2224 18008KT 9999 SCT018 TN22/2208Z TX30/2215Z BECMG 2210/2212 14015KT BKN025 BECMG 2214/2216 SCT030 BECMG 2221/2223 18005KT RMK PCH

超过4000个机场的气象观测和天气预报(METAR&TAF报告)。

可查询的气象台以黄色和红色小点在地图上表示。

将鼠标移到小点上方,可查看气象台名称。

然后点击查看天气观测和预报。

如需切换地图:点击带黑十字的绿色按钮放大地图;点击带横线的绿色按钮缩小地图;或者点击绿色箭头查看邻近地区的地图。


METAR-TAF: